Time;durP1;ratioP1;P1;durP2;ratioP2;P2;SDS_P1;SDS_P2;PMS_P1;PMS_P2;Temp;Humidity;BMP_temperature;BMP_pressure;BME280_temperature;BME280_humidity;BME280_pressure;Samples;Min_cycle;Max_cycle;Signal;HPM_P1;HPM_P2
2021/12/18 00:01:01;;;;;;;10.13;5.70;;;;;;;4.21;86.95;100309.06;5022689;28;20306;-65
2021/12/18 00:03:26;;;;;;;8.60;4.87;;;;;;;4.16;89.00;100301.53;5020580;28;20037;-64
2021/12/18 00:05:51;;;;;;;12.00;5.40;;;;;;;4.25;89.49;100302.66;5021136;28;20105;-64
2021/12/18 00:08:17;;;;;;;13.23;6.00;;;;;;;4.51;87.81;100303.44;5020917;28;20034;-64
2021/12/18 00:10:45;;;;;;;13.47;6.30;;;;;;;4.39;87.81;100307.75;5022783;28;20045;-64
2021/12/18 00:13:10;;;;;;;25.57;11.90;;;;;;;4.54;87.01;100297.97;5022549;28;20030;-65
2021/12/18 00:15:36;;;;;;;27.67;13.43;;;;;;;4.62;87.03;100310.53;5022882;28;20084;-65
2021/12/18 00:18:02;;;;;;;39.93;18.40;;;;;;;4.65;86.11;100308.53;5023051;28;20050;-65
2021/12/18 00:20:28;;;;;;;69.70;22.73;;;;;;;4.55;87.09;100310.13;5023212;28;20030;-64
2021/12/18 00:22:55;;;;;;;68.07;23.20;;;;;;;4.50;87.74;100309.63;5022094;28;20040;-64
2021/12/18 00:25:21;;;;;;;38.63;15.07;;;;;;;4.72;85.25;100312.38;5023729;28;20038;-64
2021/12/18 00:27:46;;;;;;;37.37;14.70;;;;;;;4.67;86.16;100306.63;5022365;28;20045;-63
2021/12/18 00:30:12;;;;;;;35.40;13.90;;;;;;;4.66;86.35;100301.47;5024253;28;20099;-63
2021/12/18 00:32:37;;;;;;;43.47;15.83;;;;;;;4.70;86.06;100305.56;5022756;28;20046;-65
2021/12/18 00:35:04;;;;;;;32.93;13.43;;;;;;;4.73;86.53;100297.47;5024074;28;20232;-65
2021/12/18 00:37:29;;;;;;;29.53;12.47;;;;;;;4.80;85.70;100304.78;5022155;28;20048;-65
2021/12/18 00:39:55;;;;;;;31.27;12.40;;;;;;;4.71;85.50;100299.38;5024051;28;20041;-64
2021/12/18 00:45:11;;;;;;;24.42;10.07;;;;;;;4.33;88.02;100315.22;5023713;28;20065;-63
2021/12/18 00:47:37;;;;;;;18.07;7.83;;;;;;;3.50;90.48;100307.81;5022757;28;20037;-63
2021/12/18 00:50:08;;;;;;;39.13;10.97;;;;;;;3.37;91.94;100300.88;5022669;28;20042;-63
2021/12/18 00:52:34;;;;;;;18.53;8.90;;;;;;;3.32;93.10;100302.97;5023912;28;20025;-65
2021/12/18 00:55:00;;;;;;;40.67;11.87;;;;;;;2.99;94.86;100291.13;5022475;28;20398;-64
2021/12/18 00:57:25;;;;;;;20.60;9.37;;;;;;;2.95;95.53;100300.13;5023600;28;20042;-65
2021/12/18 00:59:53;;;;;;;39.93;12.80;;;;;;;3.15;95.67;100306.69;5021346;28;20273;-65
2021/12/18 01:02:18;;;;;;;46.23;13.33;;;;;;;3.27;94.35;100305.06;5022006;28;20052;-65
2021/12/18 01:04:44;;;;;;;68.50;18.20;;;;;;;3.54;93.43;100305.81;5021976;28;20026;-63
2021/12/18 01:07:09;;;;;;;57.27;17.37;;;;;;;3.50;92.33;100297.34;5005703;28;20029;-63
2021/12/18 01:09:55;;;;;;;48.07;15.90;;;;;;;3.71;92.12;100299.44;5021403;28;20137;-64
2021/12/18 01:12:27;;;;;;;47.60;16.57;;;;;;;3.96;91.59;100293.34;5023190;28;20212;-65
2021/12/18 01:22:50;;;;;;;17.23;8.50;;;;;;;4.60;85.31;100309.78;4956904;28;20388;-64
2021/12/18 01:25:18;;;;;;;16.63;8.27;;;;;;;4.44;86.97;100316.13;5007755;28;20050;-65
2021/12/18 01:27:44;;;;;;;12.93;7.17;;;;;;;4.56;86.76;100314.44;5018325;28;20200;-63
2021/12/18 01:30:11;;;;;;;13.37;7.37;;;;;;;4.63;85.63;100313.03;5002100;28;20141;-63
2021/12/18 01:32:37;;;;;;;12.13;7.20;;;;;;;4.54;85.65;100305.00;5019851;28;20040;-65
2021/12/18 01:35:04;;;;;;;13.47;7.10;;;;;;;4.07;87.33;100303.91;5019375;28;20037;-64
2021/12/18 01:37:29;;;;;;;11.77;6.70;;;;;;;3.50;91.10;100299.13;5021017;28;20045;-65
2021/12/18 01:39:55;;;;;;;14.53;6.83;;;;;;;3.69;90.80;100298.69;5020763;28;20026;-67
2021/12/18 01:45:25;;;;;;;18.27;7.53;;;;;;;3.85;90.71;100299.31;5017069;28;20116;-67
2021/12/18 01:53:12;;;;;;;12.68;7.18;;;;;;;3.80;90.92;100288.31;5019144;28;20045;-65
2021/12/18 01:55:40;;;;;;;13.73;7.07;;;;;;;3.72;89.75;100288.84;5015610;28;20025;-67
2021/12/18 01:58:06;;;;;;;18.53;9.63;;;;;;;3.50;91.34;100289.47;5019756;28;20291;-65
2021/12/18 02:00:42;;;;;;;19.40;9.30;;;;;;;3.43;91.68;100288.22;5020414;28;20378;-66
2021/12/18 02:03:09;;;;;;;25.10;9.87;;;;;;;3.39;92.73;100286.75;5021090;28;20088;-65
2021/12/18 02:05:35;;;;;;;22.60;10.77;;;;;;;3.38;92.62;100281.63;5025467;28;20038;-65
2021/12/18 02:08:00;;;;;;;22.17;9.80;;;;;;;3.27;93.00;100269.25;5023566;28;20060;-67
2021/12/18 02:10:30;;;;;;;26.70;9.97;;;;;;;3.38;93.50;100279.84;5025025;28;20034;-68
2021/12/18 02:13:22;;;;;;;33.53;11.07;;;;;;;3.48;93.92;100269.59;5025523;28;20072;-64
2021/12/18 02:21:20;;;;;;;43.53;9.43;;;;;;;4.06;90.58;100286.50;5027940;28;19985;-64
2021/12/18 02:23:46;;;;;;;43.77;9.43;;;;;;;4.15;89.00;100278.84;5008394;28;20030;-64
2021/12/18 02:26:12;;;;;;;35.73;10.67;;;;;;;4.14;89.17;100279.78;5026217;28;20045;-64
2021/12/18 02:28:40;;;;;;;41.73;10.50;;;;;;;4.22;89.36;100276.66;5027169;28;20072;-65
2021/12/18 02:31:06;;;;;;;45.80;11.67;;;;;;;4.24;89.43;100271.31;5025931;28;20030;-65
2021/12/18 02:33:31;;;;;;;50.00;12.00;;;;;;;4.46;88.50;100271.44;5025844;28;20030;-64
2021/12/18 02:35:59;;;;;;;46.67;13.77;;;;;;;4.49;87.93;100260.75;5027477;28;20068;-64
2021/12/18 02:38:32;;;;;;;53.37;13.40;;;;;;;4.40;88.50;100256.16;5026628;28;20025;-64
2021/12/18 02:41:15;;;;;;;42.97;15.43;;;;;;;4.40;88.11;100269.25;5028803;28;20041;-64
2021/12/18 02:43:41;;;;;;;50.27;15.67;;;;;;;4.49;88.07;100268.59;5027374;28;20034;-65
2021/12/18 02:46:08;;;;;;;92.03;30.90;;;;;;;4.58;87.85;100275.81;5028349;28;20060;-64
2021/12/18 02:48:41;;;;;;;71.80;23.17;;;;;;;4.68;86.96;100268.94;5026712;28;20028;-63
2021/12/18 02:51:10;;;;;;;94.77;23.13;;;;;;;4.72;86.54;100275.66;5028896;28;20056;-65
2021/12/18 02:53:40;;;;;;;91.27;24.03;;;;;;;4.75;86.06;100272.78;5027647;28;20033;-65
2021/12/18 02:56:09;;;;;;;84.07;18.90;;;;;;;4.78;85.71;100279.59;5027517;28;20339;-64
2021/12/18 02:58:45;;;;;;;90.50;14.23;;;;;;;4.89;84.99;100286.69;5027866;28;20021;-65
2021/12/18 03:01:16;;;;;;;76.20;13.40;;;;;;;4.78;84.05;100288.31;5027386;28;20046;-65
2021/12/18 03:03:43;;;;;;;76.50;13.57;;;;;;;4.59;84.66;100290.59;5026579;28;20037;-67
2021/12/18 03:24:55;;;;;;;96.90;21.60;;;;;;;4.21;88.33;100288.09;5025499;28;20030;-65
2021/12/18 03:27:22;;;;;;;49.93;13.40;;;;;;;4.18;88.11;100285.69;5024405;28;20034;-64
2021/12/18 03:29:48;;;;;;;62.70;14.73;;;;;;;4.37;86.97;100293.91;5024981;28;20046;-64
2021/12/18 03:32:13;;;;;;;39.67;11.27;;;;;;;4.37;86.68;100296.53;5024088;28;20025;-65
2021/12/18 03:34:39;;;;;;;29.23;9.57;;;;;;;4.39;86.96;100292.03;5024573;28;20045;-65
2021/12/18 03:37:05;;;;;;;36.90;11.53;;;;;;;4.44;86.71;100304.81;5023483;28;20044;-65
2021/12/18 03:39:31;;;;;;;55.03;13.50;;;;;;;4.27;86.41;100306.00;5024013;28;20231;-65
2021/12/18 03:41:56;;;;;;;45.57;12.23;;;;;;;4.06;87.37;100304.84;5024770;28;20093;-64
2021/12/18 03:44:22;;;;;;;35.87;11.37;;;;;;;4.03;87.82;100289.34;5023819;28;20097;-64
2021/12/18 03:46:48;;;;;;;40.60;10.67;;;;;;;3.98;88.22;100297.53;5021488;28;20044;-64
2021/12/18 03:49:14;;;;;;;21.73;8.90;;;;;;;3.84;89.18;100297.66;5023644;28;20330;-65
2021/12/18 03:51:40;;;;;;;30.03;9.87;;;;;;;3.55;90.17;100291.78;5023057;28;20314;-63
2021/12/18 03:54:06;;;;;;;27.93;9.70;;;;;;;3.80;89.98;100297.03;5020534;28;20236;-64
2021/12/18 03:56:32;;;;;;;15.73;7.67;;;;;;;3.75;89.69;100303.53;5023268;28;20235;-65
2021/12/18 03:58:57;;;;;;;14.83;7.20;;;;;;;3.39;90.64;100301.63;5022744;28;20030;-65
2021/12/18 04:01:23;;;;;;;22.03;9.57;;;;;;;3.55;91.30;100307.50;5020087;28;20205;-65
2021/12/18 04:03:49;;;;;;;30.53;13.27;;;;;;;3.82;89.86;100310.00;5021208;28;20092;-65
2021/12/18 04:06:14;;;;;;;14.97;8.50;;;;;;;4.09;88.08;100312.50;5021419;28;20025;-65
2021/12/18 04:08:40;;;;;;;12.40;7.53;;;;;;;4.04;87.08;100323.31;5023049;28;20044;-67
2021/12/18 04:11:06;;;;;;;9.50;5.80;;;;;;;3.41;89.34;100328.53;5022143;28;20061;-65
2021/12/18 04:13:31;;;;;;;20.67;7.43;;;;;;;2.95;92.45;100330.69;5005955;28;20071;-65
2021/12/18 04:15:58;;;;;;;17.03;7.00;;;;;;;2.82;94.53;100330.63;5022457;28;20046;-65
2021/12/18 04:18:24;;;;;;;16.63;7.70;;;;;;;2.90;94.92;100330.97;5021324;28;20332;-67
2021/12/18 04:20:49;;;;;;;16.57;8.10;;;;;;;3.08;95.48;100321.94;5021217;28;20056;-66
2021/12/18 04:23:14;;;;;;;42.17;13.43;;;;;;;3.39;95.64;100327.78;5020422;28;20060;-64
2021/12/18 04:25:40;;;;;;;35.07;11.97;;;;;;;3.51;94.24;100311.25;5021608;28;20100;-63
2021/12/18 04:28:06;;;;;;;20.27;9.17;;;;;;;3.75;93.05;100314.84;5021711;28;20111;-63
2021/12/18 04:30:32;;;;;;;64.10;19.13;;;;;;;4.08;91.17;100332.63;5020772;28;20061;-64
2021/12/18 04:32:58;;;;;;;19.77;8.90;;;;;;;4.30;88.87;100323.31;5020606;28;20258;-65
2021/12/18 04:35:24;;;;;;;15.90;7.70;;;;;;;4.40;87.79;100333.03;5020705;28;20041;-65
2021/12/18 04:37:49;;;;;;;12.97;6.80;;;;;;;4.63;85.06;100333.19;5020260;28;20080;-64
2021/12/18 04:40:15;;;;;;;16.90;8.03;;;;;;;4.48;85.95;100327.25;5019260;28;20689;-63
2021/12/18 04:42:41;;;;;;;15.77;7.40;;;;;;;4.51;86.38;100334.06;5020718;28;20044;-64
2021/12/18 04:45:07;;;;;;;13.43;7.17;;;;;;;4.51;87.00;100336.69;5022064;28;20053;-65
2021/12/18 04:47:32;;;;;;;17.27;7.87;;;;;;;4.61;85.66;100337.69;5021291;28;20033;-64
2021/12/18 04:49:58;;;;;;;16.50;7.90;;;;;;;4.61;84.80;100349.03;5020496;28;20042;-65
2021/12/18 04:52:24;;;;;;;17.07;8.00;;;;;;;4.62;84.52;100358.56;5020457;28;20042;-64
2021/12/18 04:54:50;;;;;;;17.13;8.30;;;;;;;4.50;86.22;100359.44;5022230;28;20076;-64
2021/12/18 04:57:15;;;;;;;15.87;7.53;;;;;;;4.54;86.68;100360.91;5021261;28;20036;-65
2021/12/18 04:59:44;;;;;;;28.00;9.20;;;;;;;4.65;86.06;100362.75;5020431;28;20315;-65
2021/12/18 05:02:18;;;;;;;21.80;8.43;;;;;;;4.73;85.31;100370.94;5020314;28;20034;-65
2021/12/18 05:04:44;;;;;;;22.02;8.38;;;;;;;4.83;84.29;100369.31;5018408;28;20240;-65
2021/12/18 05:07:10;;;;;;;61.13;16.63;;;;;;;4.77;85.06;100372.38;5019649;28;20041;-64
2021/12/18 05:09:38;;;;;;;66.57;20.37;;;;;;;4.83;84.78;100382.44;5020923;28;20423;-65
2021/12/18 05:12:03;;;;;;;27.77;9.97;;;;;;;4.64;84.25;100346.19;5021580;28;20076;-65
2021/12/18 05:14:29;;;;;;;20.97;9.23;;;;;;;4.90;83.63;100391.53;5019589;28;20033;-65
2021/12/18 05:16:54;;;;;;;22.67;9.83;;;;;;;4.78;84.96;100395.88;5019720;28;20092;-64
2021/12/18 05:19:20;;;;;;;23.43;9.27;;;;;;;4.78;85.38;100395.88;5019951;28;20080;-65
2021/12/18 05:21:46;;;;;;;18.37;9.60;;;;;;;4.62;85.31;100395.28;5019948;28;20105;-63
2021/12/18 05:24:11;;;;;;;26.50;14.33;;;;;;;4.44;86.53;100392.19;5021824;28;20115;-64
2021/12/18 05:26:37;;;;;;;27.27;13.47;;;;;;;4.29;88.00;100401.13;5020643;28;20197;-63
2021/12/18 05:29:02;;;;;;;35.00;13.57;;;;;;;4.05;89.01;100394.91;5022722;28;20037;-65
2021/12/18 05:31:28;;;;;;;24.97;13.57;;;;;;;3.99;90.20;100403.19;5020297;28;20026;-65
2021/12/18 05:33:58;;;;;;;34.57;18.00;;;;;;;4.02;90.37;100392.50;5021851;28;20132;-64
2021/12/18 05:36:36;;;;;;;24.40;15.27;;;;;;;4.09;89.51;100388.50;5019711;28;20034;-66
2021/12/18 05:39:08;;;;;;;44.03;32.17;;;;;;;3.62;91.28;100396.97;5015831;28;20037;-64
2021/12/18 05:41:34;;;;;;;31.07;22.60;;;;;;;3.31;93.36;100379.81;5018529;28;20030;-64
2021/12/18 05:44:00;;;;;;;30.10;20.53;;;;;;;3.31;94.36;100406.00;5016211;28;20034;-63
2021/12/18 05:46:25;;;;;;;21.03;12.33;;;;;;;3.37;94.56;100406.44;5018660;28;20029;-64
2021/12/18 05:48:51;;;;;;;22.20;12.63;;;;;;;3.42;94.64;100413.97;5019482;28;20044;-65
2021/12/18 05:51:17;;;;;;;38.20;23.90;;;;;;;3.74;93.19;100398.75;5019123;28;20036;-64
2021/12/18 05:53:43;;;;;;;32.77;19.57;;;;;;;3.68;93.17;100407.03;5019612;28;20037;-63
2021/12/18 05:56:08;;;;;;;35.93;19.53;;;;;;;3.71;92.93;100410.28;5020901;28;20218;-64
2021/12/18 05:58:34;;;;;;;30.40;16.40;;;;;;;3.88;93.25;100417.00;5020178;28;20026;-64
2021/12/18 06:00:59;;;;;;;23.70;13.77;;;;;;;4.11;92.06;100423.31;5019302;28;20052;-64
2021/12/18 06:03:25;;;;;;;21.80;12.80;;;;;;;4.24;90.47;100420.72;5019977;28;20030;-65
2021/12/18 06:05:51;;;;;;;26.30;16.13;;;;;;;4.12;90.23;100425.84;5020049;28;20042;-63
2021/12/18 06:08:16;;;;;;;30.80;16.73;;;;;;;4.21;90.78;100421.78;5022001;28;20089;-63
2021/12/18 06:10:42;;;;;;;23.70;11.97;;;;;;;4.50;89.13;100427.63;5018938;28;20272;-66
2021/12/18 06:13:07;;;;;;;43.60;15.10;;;;;;;4.44;89.21;100442.00;5019409;28;20026;-64
2021/12/18 06:15:33;;;;;;;53.67;19.37;;;;;;;4.27;89.16;100447.56;5019579;28;20026;-65
2021/12/18 06:17:59;;;;;;;59.40;17.87;;;;;;;4.27;89.99;100452.81;5019311;28;20403;-65
2021/12/18 06:20:26;;;;;;;38.90;16.30;;;;;;;4.40;88.28;100453.66;5018273;28;20227;-63
2021/12/18 06:22:52;;;;;;;43.33;16.43;;;;;;;4.23;88.76;100453.97;5019120;28;20037;-65
2021/12/18 06:25:18;;;;;;;36.57;16.77;;;;;;;4.45;87.94;100461.19;5018393;28;20061;-63
2021/12/18 06:27:43;;;;;;;32.40;13.73;;;;;;;4.60;87.52;100465.38;5019282;28;20105;-64
2021/12/18 06:30:10;;;;;;;25.30;13.43;;;;;;;4.81;86.65;100463.88;5018266;28;20327;-66
2021/12/18 06:32:36;;;;;;;27.77;14.60;;;;;;;4.76;84.93;100416.16;5019828;28;20068;-65
2021/12/18 06:35:02;;;;;;;29.30;14.57;;;;;;;5.17;84.81;100470.09;5020726;28;20058;-64
2021/12/18 06:37:28;;;;;;;29.80;13.60;;;;;;;5.27;83.42;100468.50;5018770;28;20057;-65
2021/12/18 06:39:53;;;;;;;25.73;12.90;;;;;;;5.07;84.87;100469.06;5018559;28;20037;-65
2021/12/18 06:42:19;;;;;;;37.53;16.77;;;;;;;5.18;85.28;100468.31;5018677;28;20105;-64
2021/12/18 06:44:44;;;;;;;50.87;24.03;;;;;;;5.31;84.32;100469.97;5019439;28;20042;-66
2021/12/18 06:47:10;;;;;;;75.00;33.77;;;;;;;5.30;84.83;100462.19;5020337;28;20323;-64
2021/12/18 06:49:35;;;;;;;113.30;55.47;;;;;;;5.47;84.42;100477.56;5019340;28;20057;-64
2021/12/18 06:52:01;;;;;;;78.40;36.00;;;;;;;5.56;82.77;100481.31;5022878;28;20030;-63
2021/12/18 06:54:27;;;;;;;72.83;29.60;;;;;;;5.56;83.40;100479.53;5024443;28;20045;-66
2021/12/18 06:56:52;;;;;;;106.27;36.00;;;;;;;5.34;84.91;100480.25;5022941;28;20048;-64
2021/12/18 06:59:18;;;;;;;90.17;36.57;;;;;;;5.37;85.38;100474.78;5022779;28;20022;-64
2021/12/18 07:01:44;;;;;;;91.97;44.00;;;;;;;5.43;84.88;100481.38;5021020;28;20041;-63
2021/12/18 07:04:10;;;;;;;60.10;33.23;;;;;;;5.25;86.25;100485.31;5023959;28;20033;-66
2021/12/18 07:06:36;;;;;;;48.50;26.10;;;;;;;5.30;85.09;100478.78;5023163;28;20057;-65
2021/12/18 07:09:02;;;;;;;29.10;16.27;;;;;;;5.16;85.88;100483.31;5021994;28;20049;-64
2021/12/18 07:11:27;;;;;;;26.00;13.80;;;;;;;5.10;86.04;100485.44;5021998;28;20283;-64
2021/12/18 07:13:54;;;;;;;25.37;12.53;;;;;;;5.41;85.20;100494.63;5022295;28;20029;-64
2021/12/18 07:16:19;;;;;;;30.07;13.27;;;;;;;5.42;84.20;100498.09;5021140;28;20076;-63
2021/12/18 07:18:45;;;;;;;35.07;16.63;;;;;;;5.51;84.11;100491.31;5022735;28;20267;-64
2021/12/18 07:21:11;;;;;;;35.25;16.67;;;;;;;5.56;83.60;100491.81;5021818;28;20038;-64
2021/12/18 07:23:36;;;;;;;33.03;16.53;;;;;;;5.64;82.60;100505.25;5023505;28;20034;-65
2021/12/18 07:26:02;;;;;;;28.13;15.00;;;;;;;5.50;83.94;100514.13;5020925;28;20030;-65
2021/12/18 07:28:27;;;;;;;42.43;17.03;;;;;;;5.54;83.50;100515.59;5022203;28;20076;-65
2021/12/18 07:30:53;;;;;;;181.00;39.60;;;;;;;5.66;83.33;100513.84;5022008;28;20037;-65
2021/12/18 07:33:18;;;;;;;72.13;27.23;;;;;;;5.80;82.77;100510.22;5022230;28;20030;-64
2021/12/18 07:35:43;;;;;;;56.60;22.17;;;;;;;5.72;82.00;100514.25;5023315;28;20046;-65
2021/12/18 07:38:09;;;;;;;65.70;24.27;;;;;;;5.17;84.73;100521.75;5021976;28;20026;-65
2021/12/18 07:40:35;;;;;;;49.83;22.90;;;;;;;4.80;86.35;100525.19;5022091;28;20034;-64
2021/12/18 07:43:01;;;;;;;57.10;26.93;;;;;;;4.73;87.70;100531.78;5023993;28;20236;-65
2021/12/18 07:45:26;;;;;;;67.50;30.60;;;;;;;4.82;87.17;100519.81;5022618;28;20428;-66
2021/12/18 07:47:52;;;;;;;50.47;25.27;;;;;;;4.80;88.06;100537.47;5024865;28;20100;-64
2021/12/18 07:50:19;;;;;;;38.40;18.93;;;;;;;4.67;88.76;100528.75;5023965;28;20030;-64
2021/12/18 07:52:46;;;;;;;33.53;18.53;;;;;;;4.89;88.67;100538.59;5021544;28;20343;-68
2021/12/18 07:55:11;;;;;;;30.33;17.47;;;;;;;5.10;88.78;100545.81;5025435;28;20034;-65
2021/12/18 07:57:37;;;;;;;37.40;18.17;;;;;;;5.02;87.56;100549.94;5024459;28;20046;-66
2021/12/18 08:00:09;;;;;;;44.00;18.43;;;;;;;4.68;89.41;100561.91;5024155;28;20030;-67
2021/12/18 08:02:34;;;;;;;42.47;19.73;;;;;;;4.97;89.80;100566.00;5023884;28;20030;-66
2021/12/18 08:05:00;;;;;;;40.83;17.53;;;;;;;4.96;89.06;100566.94;5024907;28;20200;-66
2021/12/18 08:07:26;;;;;;;32.57;17.50;;;;;;;5.13;89.08;100563.97;5024015;28;20029;-68
2021/12/18 08:09:51;;;;;;;28.83;15.07;;;;;;;5.42;89.44;100569.00;5024192;28;20030;-67
2021/12/18 08:12:17;;;;;;;33.20;14.15;;;;;;;5.69;87.56;100576.69;5024083;28;20058;-66
2021/12/18 08:14:42;;;;;;;26.63;12.87;;;;;;;5.79;86.39;100575.06;5023822;28;20065;-63
2021/12/18 08:17:07;;;;;;;26.20;13.02;;;;;;;5.85;85.69;100574.63;5024258;28;20038;-65
2021/12/18 08:19:33;;;;;;;26.73;13.47;;;;;;;5.67;86.63;100570.72;5024065;28;20058;-64
2021/12/18 08:21:59;;;;;;;29.13;14.82;;;;;;;5.51;86.62;100570.97;5024009;28;20057;-63
2021/12/18 08:24:24;;;;;;;40.30;17.93;;;;;;;5.64;85.92;100568.31;5024096;28;20026;-66
2021/12/18 08:26:50;;;;;;;32.57;16.67;;;;;;;5.75;85.68;100584.13;5023907;28;20032;-65
2021/12/18 08:29:15;;;;;;;33.50;17.07;;;;;;;5.85;85.79;100579.88;5023845;28;20270;-65
2021/12/18 08:31:40;;;;;;;43.35;19.15;;;;;;;5.76;85.44;100575.28;5023402;28;20033;-66
2021/12/18 08:34:06;;;;;;;27.50;14.40;;;;;;;5.80;86.53;100581.16;5023876;28;20038;-65
2021/12/18 08:36:31;;;;;;;37.08;17.20;;;;;;;5.97;84.00;100571.13;5023726;28;20030;-64
2021/12/18 08:38:57;;;;;;;48.38;20.05;;;;;;;6.34;83.74;100586.84;5023024;28;20033;-65
2021/12/18 08:41:23;;;;;;;31.58;17.00;;;;;;;6.71;81.99;100588.38;5023486;28;20129;-65
2021/12/18 08:43:49;;;;;;;31.20;14.77;;;;;;;6.76;82.67;100598.56;5023275;28;20335;-66
2021/12/18 08:46:15;;;;;;;23.83;12.18;;;;;;;7.09;81.36;100596.94;5023220;28;20029;-66
2021/12/18 08:48:40;;;;;;;26.08;12.13;;;;;;;7.13;80.64;100587.84;5023757;28;20105;-65
2021/12/18 08:51:06;;;;;;;26.50;14.40;;;;;;;7.16;81.77;100596.31;5023582;28;20389;-67
2021/12/18 08:53:32;;;;;;;28.42;14.02;;;;;;;7.15;80.78;100591.19;5023389;28;20033;-67
2021/12/18 08:55:57;;;;;;;28.48;13.77;;;;;;;7.14;81.26;100611.41;5023301;28;20038;-67
2021/12/18 08:58:23;;;;;;;21.53;11.17;;;;;;;7.11;81.45;100598.47;5023569;28;20105;-65
2021/12/18 09:00:48;;;;;;;19.90;10.88;;;;;;;7.07;81.38;100602.31;5023003;28;20044;-67
2021/12/18 09:03:14;;;;;;;25.48;13.75;;;;;;;6.76;82.01;100589.84;5023593;28;20040;-67
2021/12/18 09:05:39;;;;;;;27.80;15.52;;;;;;;6.89;82.72;100595.84;5022185;28;20346;-66
2021/12/18 09:08:04;;;;;;;31.20;15.80;;;;;;;6.75;83.33;100593.41;5022999;28;20113;-67
2021/12/18 09:10:30;;;;;;;24.95;14.23;;;;;;;6.90;83.03;100595.72;5023159;28;20029;-67
2021/12/18 09:12:56;;;;;;;29.33;16.27;;;;;;;7.01;82.49;100601.00;5022682;28;20373;-67
2021/12/18 09:15:22;;;;;;;24.45;14.05;;;;;;;6.95;82.22;100598.00;5022377;28;20034;-66
2021/12/18 09:17:48;;;;;;;25.05;13.07;;;;;;;7.06;82.15;100587.47;5022969;28;20040;-65
2021/12/18 09:20:15;;;;;;;27.77;14.88;;;;;;;7.00;82.07;100593.22;5023152;28;20034;-67
2021/12/18 09:22:40;;;;;;;33.80;16.65;;;;;;;6.93;83.02;100578.84;5022853;28;20032;-66
2021/12/18 09:25:07;;;;;;;31.17;15.20;;;;;;;7.18;82.43;100590.94;5023101;28;20155;-67
2021/12/18 09:27:34;;;;;;;28.48;16.17;;;;;;;7.21;82.51;100580.16;5022991;28;20025;-67
2021/12/18 09:29:59;;;;;;;29.70;16.27;;;;;;;7.39;82.87;100577.91;5022479;28;20030;-67
2021/12/18 09:32:25;;;;;;;34.80;17.95;;;;;;;7.51;81.97;100584.84;5005018;28;20040;-66
2021/12/18 09:34:51;;;;;;;29.70;16.73;;;;;;;7.62;81.38;100583.03;5022695;28;20037;-66
2021/12/18 09:37:16;;;;;;;29.70;14.90;;;;;;;7.87;79.07;100587.16;5022384;28;20034;-67
2021/12/18 09:39:42;;;;;;;30.30;16.05;;;;;;;7.83;80.29;100584.91;5022682;28;20058;-68
2021/12/18 09:42:08;;;;;;;32.08;18.23;;;;;;;7.78;81.04;100589.72;5022713;28;20049;-66
2021/12/18 09:44:35;;;;;;;32.90;17.52;;;;;;;7.93;79.19;100585.84;5022304;28;20026;-66
2021/12/18 09:47:01;;;;;;;27.38;15.07;;;;;;;7.96;79.01;100593.50;5022591;28;20097;-67
2021/12/18 09:49:27;;;;;;;41.92;19.10;;;;;;;7.69;77.82;100599.19;5022644;28;20034;-67
2021/12/18 09:51:53;;;;;;;43.45;19.48;;;;;;;7.62;78.12;100585.66;5022640;28;20026;-66
2021/12/18 09:54:19;;;;;;;37.15;16.60;;;;;;;7.71;77.70;100594.63;5022191;28;20327;-67
2021/12/18 09:56:45;;;;;;;29.45;14.43;;;;;;;7.81;78.00;100586.81;5022111;28;20280;-67
2021/12/18 09:59:11;;;;;;;27.67;12.77;;;;;;;7.80;78.54;100588.63;5004877;28;20033;-66
2021/12/18 10:01:37;;;;;;;18.67;11.52;;;;;;;7.83;76.50;100585.75;5022107;28;20022;-67
2021/12/18 10:04:04;;;;;;;50.70;17.83;;;;;;;7.91;76.20;100585.13;5022229;28;20041;-67
2021/12/18 10:06:40;;;;;;;29.13;14.20;;;;;;;7.95;76.12;100587.38;5022442;28;20093;-67
2021/12/18 10:09:06;;;;;;;45.95;19.58;;;;;;;7.67;77.10;100580.03;5021723;28;20022;-68
2021/12/18 10:11:32;;;;;;;39.00;18.10;;;;;;;7.24;78.09;100580.75;5022346;28;20338;-67
2021/12/18 10:14:03;;;;;;;30.20;14.10;;;;;;;7.51;77.40;100572.50;5022074;28;20068;-67
2021/12/18 10:16:30;;;;;;;21.90;11.40;;;;;;;7.05;79.13;100586.63;5022075;28;20022;-66
2021/12/18 10:18:57;;;;;;;21.08;11.05;;;;;;;7.14;79.63;100577.19;5022107;28;20053;-67
2021/12/18 10:21:26;;;;;;;24.33;10.82;;;;;;;7.03;81.02;100580.66;5022325;28;20034;-66
2021/12/18 10:23:52;;;;;;;21.67;10.20;;;;;;;7.24;80.17;100575.50;5021655;28;20124;-65
2021/12/18 10:26:50;;;;;;;17.88;9.45;;;;;;;7.13;79.14;100574.66;5025489;28;20068;-66
2021/12/18 10:29:42;;;;;;;23.65;12.93;;;;;;;6.91;80.05;100572.84;4969458;28;20110;-67
2021/12/18 10:32:17;;;;;;;19.92;11.35;;;;;;;6.81;79.87;100574.53;5001953;28;20371;-67
2021/12/18 10:34:54;;;;;;;25.42;11.63;;;;;;;6.56;81.46;100583.44;5024621;28;20102;-66
2021/12/18 10:37:25;;;;;;;28.45;11.95;;;;;;;6.42;81.08;100583.66;5024025;28;20037;-67
2021/12/18 10:39:50;;;;;;;34.15;16.52;;;;;;;6.52;81.86;100584.63;5006597;28;20034;-66
2021/12/18 10:42:18;;;;;;;35.83;14.20;;;;;;;6.68;80.37;100577.25;5024201;28;20030;-67
2021/12/18 10:45:01;;;;;;;40.90;17.30;;;;;;;6.55;81.27;100587.03;5023970;28;20050;-66
2021/12/18 10:47:40;;;;;;;55.00;18.50;;;;;;;6.70;80.29;100591.97;5024184;28;20314;-66
2021/12/18 10:50:24;;;;;;;23.63;12.00;;;;;;;6.57;78.76;100587.75;5024081;28;20044;-67
2021/12/18 10:52:56;;;;;;;43.27;16.23;;;;;;;6.87;80.62;100579.31;5023943;28;20026;-65
2021/12/18 10:55:41;;;;;;;20.95;9.43;;;;;;;6.91;78.12;100573.69;5023783;28;20116;-67
2021/12/18 10:58:08;;;;;;;26.15;12.35;;;;;;;6.97;77.85;100570.59;5006359;28;20029;-67
2021/12/18 11:00:44;;;;;;;11.97;5.87;;;;;;;6.83;77.84;100575.25;5023495;28;20034;-65
2021/12/18 11:03:25;;;;;;;10.70;5.90;;;;;;;6.63;76.87;100576.75;5024121;28;20045;-65
2021/12/18 11:06:17;;;;;;;8.70;5.55;;;;;;;6.63;76.90;100571.50;5023852;28;20214;-65
2021/12/18 11:08:58;;;;;;;9.13;4.88;;;;;;;6.40;77.67;100579.34;5023745;28;20065;-64
2021/12/18 11:14:03;;;;;;;7.67;4.87;;;;;;;6.03;80.54;100568.06;5023468;28;20029;-63
2021/12/18 11:16:29;;;;;;;15.33;7.87;;;;;;;6.10;81.84;100568.44;5023295;28;20033;-65
2021/12/18 11:18:55;;;;;;;30.67;13.67;;;;;;;6.21;82.66;100559.75;5023184;28;20113;-64
2021/12/18 11:21:24;;;;;;;19.77;9.83;;;;;;;5.99;84.50;100558.72;5023641;28;20228;-67
2021/12/18 11:23:49;;;;;;;48.43;18.73;;;;;;;5.86;85.96;100564.97;5022829;28;20033;-66
2021/12/18 11:26:15;;;;;;;86.30;26.10;;;;;;;5.89;87.40;100556.84;5023463;28;20331;-67
2021/12/18 11:28:49;;;;;;;36.13;16.93;;;;;;;5.76;87.24;100552.47;5022937;28;20323;-66
2021/12/18 11:31:15;;;;;;;29.88;22.20;;;;;;;5.86;86.53;100552.66;5023160;28;20382;-67
2021/12/18 11:33:41;;;;;;;17.77;10.87;;;;;;;6.14;87.62;100556.75;5022929;28;20097;-67
2021/12/18 11:36:08;;;;;;;14.70;8.25;;;;;;;6.02;86.69;100555.03;5022423;28;20287;-67
2021/12/18 11:38:35;;;;;;;10.70;6.67;;;;;;;6.22;86.68;100548.28;5022195;28;20037;-67
2021/12/18 11:41:01;;;;;;;17.05;8.20;;;;;;;6.33;87.18;100543.09;5023142;28;20040;-66
2021/12/18 11:43:43;;;;;;;38.03;14.47;;;;;;;6.48;84.16;100544.56;5023177;28;20038;-66
2021/12/18 11:46:31;;;;;;;27.70;12.15;;;;;;;6.57;84.07;100549.13;5024582;28;20046;-66
2021/12/18 11:49:03;;;;;;;17.00;10.75;;;;;;;6.82;83.62;100536.72;5024620;28;20096;-66
2021/12/18 11:51:30;;;;;;;18.15;7.07;;;;;;;6.99;82.61;100542.34;5024794;28;20049;-65
2021/12/18 11:53:56;;;;;;;11.93;6.13;;;;;;;6.92;81.98;100556.09;5024071;28;20038;-66
2021/12/18 11:56:22;;;;;;;16.20;6.30;;;;;;;7.02;79.50;100551.78;5024602;28;20085;-67
2021/12/18 11:58:49;;;;;;;22.13;7.82;;;;;;;7.06;78.71;100561.13;5024578;28;20041;-67
2021/12/18 12:01:19;;;;;;;6.97;4.35;;;;;;;7.24;76.55;100559.69;5024516;28;20037;-67
2021/12/18 12:03:50;;;;;;;32.15;8.88;;;;;;;7.17;76.15;100555.88;5024108;28;20129;-66
2021/12/18 12:06:19;;;;;;;14.00;6.03;;;;;;;7.40;74.86;100554.06;5024344;28;20395;-66